Time;durP1;ratioP1;P1;durP2;ratioP2;P2;SDS_P1;SDS_P2;PMS_P1;PMS_P2;Temp;Humidity;BMP_temperature;BMP_pressure;BME280_temperature;BME280_humidity;BME280_pressure;Samples;Min_cycle;Max_cycle;Signal;HPM_P1;HPM_P2
2022/10/17 00:02:20;;;;;;;56.85;38.38;;;;;;;;;;5041819;28;20082;-63
2022/10/17 00:04:45;;;;;;;55.58;38.30;;;;;;;;;;5041886;28;20116;-63
2022/10/17 00:07:10;;;;;;;55.28;37.08;;;;;;;;;;5039681;28;20029;-64
2022/10/17 00:09:36;;;;;;;52.67;37.15;;;;;;;;;;5038595;28;20186;-63
2022/10/17 00:12:01;;;;;;;52.53;36.30;;;;;;;;;;5040360;28;20575;-63
2022/10/17 00:14:26;;;;;;;52.10;36.40;;;;;;;;;;5040692;28;20099;-63
2022/10/17 00:16:52;;;;;;;48.95;34.38;;;;;;;;;;5038505;28;20029;-63
2022/10/17 00:19:17;;;;;;;59.78;38.20;;;;;;;;;;5040813;28;20029;-63
2022/10/17 00:21:42;;;;;;;52.70;35.67;;;;;;;;;;5042125;28;20022;-63
2022/10/17 00:24:07;;;;;;;48.30;35.45;;;;;;;;;;5038393;28;20017;-63
2022/10/17 00:26:33;;;;;;;54.55;38.10;;;;;;;;;;5040334;28;20062;-63
2022/10/17 00:28:58;;;;;;;47.63;34.58;;;;;;;;;;5046641;28;21008;-63
2022/10/17 00:31:23;;;;;;;44.60;32.95;;;;;;;;;;5041201;28;20032;-63
2022/10/17 00:33:49;;;;;;;48.63;34.13;;;;;;;;;;5042089;28;20040;-63
2022/10/17 00:36:16;;;;;;;43.83;32.03;;;;;;;;;;5039811;28;20034;-63
2022/10/17 00:38:42;;;;;;;50.03;35.15;;;;;;;;;;5041150;28;20025;-63
2022/10/17 00:41:08;;;;;;;51.92;34.20;;;;;;;;;;5038661;28;20677;-63
2022/10/17 00:43:52;;;;;;;52.08;35.85;;;;;;;;;;5039530;28;20020;-64
2022/10/17 00:46:18;;;;;;;49.03;35.28;;;;;;;;;;5041421;28;20028;-63
2022/10/17 00:48:44;;;;;;;48.95;34.65;;;;;;;;;;5041460;28;20528;-62
2022/10/17 00:51:09;;;;;;;49.65;35.60;;;;;;;;;;5040462;28;20105;-63
2022/10/17 00:53:35;;;;;;;49.13;35.60;;;;;;;;;;5042162;28;20048;-63
2022/10/17 00:56:01;;;;;;;45.00;32.45;;;;;;;;;;5040153;28;20051;-63
2022/10/17 00:58:26;;;;;;;45.70;33.90;;;;;;;;;;5038695;28;20060;-63
2022/10/17 01:00:51;;;;;;;45.70;32.13;;;;;;;;;;5039324;28;20071;-63
2022/10/17 01:03:17;;;;;;;45.45;32.42;;;;;;;;;;5040198;28;20032;-63
2022/10/17 01:05:42;;;;;;;51.15;33.47;;;;;;;;;;5038710;28;20037;-63
2022/10/17 01:08:08;;;;;;;43.70;32.58;;;;;;;;;;5040900;28;20039;-63
2022/10/17 01:10:48;;;;;;;44.30;31.50;;;;;;;;;;5040202;28;20035;-63
2022/10/17 01:13:19;;;;;;;41.55;30.45;;;;;;;;;;5035517;28;20133;-63
2022/10/17 01:15:56;;;;;;;43.95;32.05;;;;;;;;;;5037174;28;20472;-63
2022/10/17 01:18:42;;;;;;;42.38;32.65;;;;;;;;;;5043772;28;20171;-63
2022/10/17 01:21:08;;;;;;;47.95;34.75;;;;;;;;;;5038202;28;20538;-63
2022/10/17 01:23:52;;;;;;;40.15;30.90;;;;;;;;;;5038538;28;20028;-63
2022/10/17 01:26:30;;;;;;;44.83;30.75;;;;;;;;;;5041007;28;20316;-63
2022/10/17 01:29:15;;;;;;;44.88;32.53;;;;;;;;;;5040464;28;20039;-63
2022/10/17 01:31:43;;;;;;;42.38;30.70;;;;;;;;;;5027875;28;20845;-63
2022/10/17 01:34:11;;;;;;;43.67;31.02;;;;;;;;;;5038880;28;20028;-63
2022/10/17 01:36:36;;;;;;;45.08;32.42;;;;;;;;;;5037481;28;20040;-63
2022/10/17 01:39:10;;;;;;;42.15;30.05;;;;;;;;;;5037806;28;20685;-63
2022/10/17 01:41:43;;;;;;;45.83;31.52;;;;;;;;;;5038449;28;20017;-63
2022/10/17 01:44:14;;;;;;;41.70;31.17;;;;;;;;;;5038196;28;20028;-63
2022/10/17 01:46:41;;;;;;;39.90;29.77;;;;;;;;;;5039723;28;20049;-64
2022/10/17 01:49:08;;;;;;;39.88;29.65;;;;;;;;;;5039649;28;20041;-63
2022/10/17 01:51:39;;;;;;;40.45;28.00;;;;;;;;;;5039823;28;20469;-63
2022/10/17 01:54:15;;;;;;;39.70;29.35;;;;;;;;;;5039479;28;20024;-64
2022/10/17 01:56:41;;;;;;;40.65;30.73;;;;;;;;;;5035986;28;20499;-64
2022/10/17 01:59:16;;;;;;;41.72;29.23;;;;;;;;;;5027869;28;20155;-65
2022/10/17 02:01:42;;;;;;;52.33;33.97;;;;;;;;;;5033280;28;20044;-63
2022/10/17 02:04:08;;;;;;;49.05;33.17;;;;;;;;;;5038767;28;20028;-63
2022/10/17 02:06:37;;;;;;;47.15;32.05;;;;;;;;;;5039031;28;20053;-63
2022/10/17 02:09:19;;;;;;;44.83;31.42;;;;;;;;;;5036701;28;20039;-63
2022/10/17 02:11:49;;;;;;;41.03;30.83;;;;;;;;;;5041217;28;20029;-63
2022/10/17 02:14:33;;;;;;;43.28;30.98;;;;;;;;;;5038160;28;20117;-63
2022/10/17 02:17:05;;;;;;;39.15;29.65;;;;;;;;;;5041061;28;20075;-63
2022/10/17 02:19:42;;;;;;;37.08;28.45;;;;;;;;;;5038208;28;20039;-63
2022/10/17 02:22:13;;;;;;;39.03;30.52;;;;;;;;;;5040427;28;20028;-63
2022/10/17 02:24:44;;;;;;;39.55;30.13;;;;;;;;;;5039954;28;20032;-63
2022/10/17 02:27:15;;;;;;;43.17;30.40;;;;;;;;;;5039884;28;20079;-63
2022/10/17 02:29:47;;;;;;;39.28;30.05;;;;;;;;;;5039112;28;20052;-63
2022/10/17 02:32:31;;;;;;;39.25;29.00;;;;;;;;;;5040258;28;20017;-62
2022/10/17 02:34:59;;;;;;;40.38;28.75;;;;;;;;;;5039529;28;20029;-63
2022/10/17 02:37:26;;;;;;;38.63;29.27;;;;;;;;;;5038664;28;20425;-63
2022/10/17 02:39:53;;;;;;;40.90;29.23;;;;;;;;;;5038628;28;20029;-63
2022/10/17 02:42:19;;;;;;;38.25;28.77;;;;;;;;;;5036076;28;20013;-64
2022/10/17 02:44:45;;;;;;;42.35;29.67;;;;;;;;;;5038110;28;20025;-63
2022/10/17 02:47:20;;;;;;;36.53;27.77;;;;;;;;;;5038142;28;20035;-63
2022/10/17 02:49:50;;;;;;;40.25;30.35;;;;;;;;;;5038902;28;20963;-62
2022/10/17 02:52:27;;;;;;;39.55;28.67;;;;;;;;;;5038073;28;20036;-63
2022/10/17 02:55:04;;;;;;;44.35;30.88;;;;;;;;;;5038390;28;20028;-63
2022/10/17 02:57:34;;;;;;;37.80;29.08;;;;;;;;;;5036473;28;20128;-63
2022/10/17 03:00:00;;;;;;;41.47;31.20;;;;;;;;;;5036741;28;20485;-62
2022/10/17 03:02:26;;;;;;;39.67;28.55;;;;;;;;;;5039607;28;20036;-63
2022/10/17 03:04:51;;;;;;;41.15;28.85;;;;;;;;;;5037058;28;20025;-67
2022/10/17 03:07:16;;;;;;;37.47;29.35;;;;;;;;;;5028695;28;20032;-64
2022/10/17 03:09:42;;;;;;;40.22;29.88;;;;;;;;;;5037216;28;20583;-64
2022/10/17 03:12:07;;;;;;;39.35;29.20;;;;;;;;;;5039961;28;20455;-64
2022/10/17 03:14:32;;;;;;;40.95;29.50;;;;;;;;;;5039503;28;20476;-64
2022/10/17 03:16:58;;;;;;;40.65;30.38;;;;;;;;;;5041729;28;20049;-64
2022/10/17 03:19:23;;;;;;;40.58;29.65;;;;;;;;;;5037719;28;20092;-63
2022/10/17 03:21:48;;;;;;;39.13;27.75;;;;;;;;;;5039771;28;20040;-63
2022/10/17 03:24:13;;;;;;;35.92;27.20;;;;;;;;;;5041994;28;20048;-63
2022/10/17 03:26:39;;;;;;;40.40;29.48;;;;;;;;;;5042522;28;20039;-64
2022/10/17 03:29:06;;;;;;;39.00;28.35;;;;;;;;;;5044023;28;20033;-64
2022/10/17 03:31:31;;;;;;;44.22;30.40;;;;;;;;;;5042221;28;20243;-64
2022/10/17 03:33:56;;;;;;;43.85;29.60;;;;;;;;;;5042283;28;20142;-66
2022/10/17 03:36:21;;;;;;;39.92;29.92;;;;;;;;;;5042522;28;20039;-63
2022/10/17 03:38:52;;;;;;;44.60;30.42;;;;;;;;;;5042690;28;20028;-63
2022/10/17 03:41:17;;;;;;;42.60;29.50;;;;;;;;;;5041904;28;20025;-64
2022/10/17 03:43:42;;;;;;;44.03;29.60;;;;;;;;;;5042925;28;21075;-64
2022/10/17 03:46:08;;;;;;;43.25;29.25;;;;;;;;;;5041732;28;20119;-64
2022/10/17 03:48:33;;;;;;;44.05;30.65;;;;;;;;;;5043102;28;20029;-63
2022/10/17 03:51:00;;;;;;;39.65;28.42;;;;;;;;;;5042167;28;20476;-64
2022/10/17 03:53:25;;;;;;;44.83;30.40;;;;;;;;;;5041726;28;20429;-65
2022/10/17 03:55:50;;;;;;;42.40;27.40;;;;;;;;;;5040909;28;20045;-64
2022/10/17 03:58:15;;;;;;;42.03;29.25;;;;;;;;;;5041888;28;20033;-64
2022/10/17 04:00:41;;;;;;;42.97;30.50;;;;;;;;;;5042920;28;20487;-64
2022/10/17 04:03:06;;;;;;;44.00;29.83;;;;;;;;;;5040779;28;20060;-64
2022/10/17 04:05:31;;;;;;;40.72;30.05;;;;;;;;;;5039034;28;20489;-64
2022/10/17 04:07:56;;;;;;;38.65;28.08;;;;;;;;;;5042518;28;20090;-64
2022/10/17 04:10:22;;;;;;;38.53;27.23;;;;;;;;;;5042004;28;20449;-64
2022/10/17 04:12:47;;;;;;;39.30;26.52;;;;;;;;;;5040710;28;20029;-63
2022/10/17 04:15:12;;;;;;;37.10;25.15;;;;;;;;;;5042108;28;20053;-63
2022/10/17 04:17:37;;;;;;;34.42;25.80;;;;;;;;;;5040807;28;20044;-64
2022/10/17 04:20:03;;;;;;;37.00;26.77;;;;;;;;;;5040796;28;20089;-64
2022/10/17 04:22:28;;;;;;;35.58;25.63;;;;;;;;;;5040428;28;20157;-64
2022/10/17 04:24:53;;;;;;;34.42;26.77;;;;;;;;;;5040185;28;20589;-64
2022/10/17 04:27:19;;;;;;;38.72;25.92;;;;;;;;;;5039359;28;21022;-64
2022/10/17 04:29:44;;;;;;;39.30;26.23;;;;;;;;;;5041848;28;20055;-64
2022/10/17 04:32:09;;;;;;;37.80;26.45;;;;;;;;;;5041118;28;20034;-64
2022/10/17 04:34:35;;;;;;;38.08;26.30;;;;;;;;;;5041080;28;20074;-64
2022/10/17 04:37:00;;;;;;;36.05;26.92;;;;;;;;;;5039080;28;20124;-65
2022/10/17 04:39:25;;;;;;;38.15;26.70;;;;;;;;;;5042491;28;20032;-64
2022/10/17 04:41:50;;;;;;;38.15;28.23;;;;;;;;;;5040817;28;20478;-64
2022/10/17 04:44:16;;;;;;;38.70;26.85;;;;;;;;;;5038959;28;20020;-66
2022/10/17 04:46:41;;;;;;;35.97;25.92;;;;;;;;;;5043251;28;20060;-64
2022/10/17 04:49:07;;;;;;;38.78;24.83;;;;;;;;;;5039935;28;20056;-64
2022/10/17 04:51:32;;;;;;;38.88;25.90;;;;;;;;;;5039174;28;20748;-65
2022/10/17 04:53:57;;;;;;;34.97;25.05;;;;;;;;;;5044140;28;20036;-65
2022/10/17 04:56:23;;;;;;;34.78;24.85;;;;;;;;;;5040327;28;20025;-65
2022/10/17 04:58:49;;;;;;;35.88;23.85;;;;;;;;;;5041918;28;20468;-64
2022/10/17 05:01:18;;;;;;;39.85;25.83;;;;;;;;;;5040803;28;20029;-69
2022/10/17 05:03:44;;;;;;;36.53;26.20;;;;;;;;;;5040074;28;20041;-69
2022/10/17 05:06:36;;;;;;;39.65;27.20;;;;;;;;;;5040583;28;20021;-66
2022/10/17 05:09:02;;;;;;;36.38;24.77;;;;;;;;;;5038637;28;20033;-71
2022/10/17 05:11:27;;;;;;;36.15;24.48;;;;;;;;;;5040569;28;20025;-64
2022/10/17 05:13:54;;;;;;;34.65;23.58;;;;;;;;;;5039363;28;20061;-64
2022/10/17 05:16:20;;;;;;;39.80;25.65;;;;;;;;;;5039491;28;20021;-63
2022/10/17 05:18:49;;;;;;;36.65;24.52;;;;;;;;;;5038387;28;20051;-64
2022/10/17 05:21:15;;;;;;;37.13;26.13;;;;;;;;;;5039643;28;20131;-64
2022/10/17 05:23:40;;;;;;;37.03;25.23;;;;;;;;;;5041719;28;20514;-64
2022/10/17 05:26:05;;;;;;;36.22;25.77;;;;;;;;;;5040765;28;20060;-65
2022/10/17 05:28:30;;;;;;;34.83;24.85;;;;;;;;;;5040360;28;20406;-65
2022/10/17 05:30:56;;;;;;;38.70;26.63;;;;;;;;;;5041040;28;20024;-65
2022/10/17 05:33:21;;;;;;;37.50;25.17;;;;;;;;;;5038843;28;20079;-65
2022/10/17 05:35:46;;;;;;;39.95;25.63;;;;;;;;;;5040711;28;20044;-65
2022/10/17 05:38:12;;;;;;;41.58;27.27;;;;;;;;;;5039583;28;20091;-65
2022/10/17 05:40:38;;;;;;;39.63;26.48;;;;;;;;;;5040195;28;20091;-64
2022/10/17 05:43:03;;;;;;;39.60;26.67;;;;;;;;;;5040710;28;20040;-63
2022/10/17 05:45:28;;;;;;;42.85;27.42;;;;;;;;;;5040162;28;20025;-62
2022/10/17 05:47:54;;;;;;;38.47;27.48;;;;;;;;;;5040731;28;20578;-63
2022/10/17 05:50:24;;;;;;;40.13;26.48;;;;;;;;;;5038875;28;20057;-64
2022/10/17 05:52:51;;;;;;;42.60;27.42;;;;;;;;;;5039818;28;20028;-62
2022/10/17 05:55:17;;;;;;;44.10;28.77;;;;;;;;;;5040357;28;20067;-64
2022/10/17 05:57:42;;;;;;;47.67;30.25;;;;;;;;;;5035365;28;20476;-64
2022/10/17 06:00:07;;;;;;;49.25;30.05;;;;;;;;;;5041770;28;20039;-63
2022/10/17 06:02:33;;;;;;;53.30;31.85;;;;;;;;;;5040330;28;20029;-64
2022/10/17 06:04:58;;;;;;;49.38;28.83;;;;;;;;;;5041159;28;20174;-63
2022/10/17 06:07:23;;;;;;;49.47;30.10;;;;;;;;;;5034493;28;20033;-64
2022/10/17 06:09:48;;;;;;;52.78;31.90;;;;;;;;;;5041576;28;20086;-64
2022/10/17 06:12:14;;;;;;;52.63;31.33;;;;;;;;;;5040852;28;20029;-64
2022/10/17 06:14:39;;;;;;;49.85;30.38;;;;;;;;;;5038768;28;20060;-64
2022/10/17 06:17:04;;;;;;;55.97;33.53;;;;;;;;;;5040778;28;20044;-64
2022/10/17 06:19:29;;;;;;;62.70;33.90;;;;;;;;;;5036913;28;20468;-63
2022/10/17 06:21:55;;;;;;;51.03;32.20;;;;;;;;;;5041393;28;20772;-64
2022/10/17 06:24:20;;;;;;;55.88;33.53;;;;;;;;;;5039550;28;20039;-64
2022/10/17 06:26:46;;;;;;;52.13;32.80;;;;;;;;;;5040141;28;20491;-63
2022/10/17 06:29:11;;;;;;;54.45;32.60;;;;;;;;;;5024813;28;20122;-64
2022/10/17 06:31:37;;;;;;;50.55;33.50;;;;;;;;;;5038261;28;20029;-63
2022/10/17 06:34:02;;;;;;;55.72;34.58;;;;;;;;;;5039491;28;20776;-64
2022/10/17 06:36:27;;;;;;;50.25;31.88;;;;;;;;;;5039304;28;20033;-63
2022/10/17 06:38:52;;;;;;;55.45;35.05;;;;;;;;;;5033994;28;20028;-63
2022/10/17 06:41:18;;;;;;;59.40;34.95;;;;;;;;;;5038932;28;20025;-63
2022/10/17 06:43:46;;;;;;;58.08;36.88;;;;;;;;;;5040699;28;20029;-64
2022/10/17 06:46:13;;;;;;;55.55;35.13;;;;;;;;;;5044782;28;20083;-64
2022/10/17 06:48:38;;;;;;;60.88;36.83;;;;;;;;;;5044873;28;20847;-63
2022/10/17 06:51:04;;;;;;;58.58;38.30;;;;;;;;;;5044572;28;20031;-63
2022/10/17 06:53:30;;;;;;;58.40;37.95;;;;;;;;;;5037469;28;20021;-64
2022/10/17 06:56:01;;;;;;;56.55;37.83;;;;;;;;;;5040998;28;20040;-67
2022/10/17 06:58:30;;;;;;;70.93;43.75;;;;;;;;;;5037902;28;20021;-68
2022/10/17 07:00:59;;;;;;;69.88;43.78;;;;;;;;;;5036742;28;20033;-66
2022/10/17 07:03:24;;;;;;;66.43;42.95;;;;;;;;;;5033927;28;20510;-66
2022/10/17 07:05:50;;;;;;;63.63;43.53;;;;;;;;;;5038911;28;20033;-66
2022/10/17 07:08:15;;;;;;;74.50;44.45;;;;;;;;;;5041200;28;20025;-66
2022/10/17 07:10:41;;;;;;;68.10;44.65;;;;;;;;;;5044044;28;20050;-67
2022/10/17 07:13:06;;;;;;;68.97;43.88;;;;;;;;;;5042554;28;20202;-68
2022/10/17 07:15:31;;;;;;;78.72;48.85;;;;;;;;;;5038939;28;20159;-68
2022/10/17 07:17:56;;;;;;;82.10;50.35;;;;;;;;;;5036748;28;20144;-66
2022/10/17 07:20:22;;;;;;;71.53;46.53;;;;;;;;;;5039703;28;20048;-67
2022/10/17 07:22:47;;;;;;;71.22;46.55;;;;;;;;;;5040045;28;20024;-68
2022/10/17 07:25:12;;;;;;;69.57;45.58;;;;;;;;;;5039411;28;20021;-68
2022/10/17 07:27:38;;;;;;;66.95;44.75;;;;;;;;;;5035973;28;20152;-67
2022/10/17 07:30:03;;;;;;;65.43;44.75;;;;;;;;;;5040617;28;20127;-67
2022/10/17 07:32:28;;;;;;;63.42;41.88;;;;;;;;;;5041572;28;20057;-67
2022/10/17 07:34:54;;;;;;;60.40;40.92;;;;;;;;;;5042184;28;20425;-67
2022/10/17 07:37:19;;;;;;;67.72;41.80;;;;;;;;;;5041869;28;20128;-67
2022/10/17 07:39:44;;;;;;;61.00;40.75;;;;;;;;;;5041005;28;20017;-67
2022/10/17 07:42:09;;;;;;;61.88;40.08;;;;;;;;;;5038513;28;20025;-67
2022/10/17 07:44:34;;;;;;;63.08;43.53;;;;;;;;;;5037737;28;20718;-67
2022/10/17 07:47:00;;;;;;;59.90;41.38;;;;;;;;;;5039981;28;20854;-67
2022/10/17 07:49:25;;;;;;;60.03;40.03;;;;;;;;;;5040429;28;20112;-68
2022/10/17 07:51:50;;;;;;;59.20;38.67;;;;;;;;;;5040947;28;20033;-67
2022/10/17 07:54:15;;;;;;;56.53;40.10;;;;;;;;;;5040585;28;20502;-67
2022/10/17 07:56:41;;;;;;;59.25;42.67;;;;;;;;;;5041355;28;20106;-66
2022/10/17 07:59:06;;;;;;;50.08;37.30;;;;;;;;;;5038663;28;20033;-66
2022/10/17 08:01:31;;;;;;;58.85;41.70;;;;;;;;;;5040304;28;20024;-67
2022/10/17 08:03:56;;;;;;;57.60;40.28;;;;;;;;;;5039434;28;20487;-67
2022/10/17 08:06:22;;;;;;;52.95;37.63;;;;;;;;;;5038171;28;20437;-67
2022/10/17 08:08:47;;;;;;;57.95;41.67;;;;;;;;;;5036132;28;20119;-66
2022/10/17 08:11:13;;;;;;;59.85;41.55;;;;;;;;;;5038984;28;20119;-68
2022/10/17 08:13:39;;;;;;;52.13;38.97;;;;;;;;;;5047853;28;20053;-68
2022/10/17 08:16:06;;;;;;;53.88;38.92;;;;;;;;;;5038488;28;20039;-68
2022/10/17 08:18:32;;;;;;;49.08;37.67;;;;;;;;;;5041458;28;20037;-68
2022/10/17 08:21:01;;;;;;;51.90;37.72;;;;;;;;;;5038780;28;20476;-68
2022/10/17 08:23:26;;;;;;;53.28;39.83;;;;;;;;;;5036256;28;20017;-69
2022/10/17 08:25:51;;;;;;;53.53;39.90;;;;;;;;;;5040316;28;20037;-68
2022/10/17 08:28:17;;;;;;;52.47;39.35;;;;;;;;;;5038988;28;20029;-68
2022/10/17 08:30:42;;;;;;;51.78;38.90;;;;;;;;;;5042210;28;20034;-68
2022/10/17 08:33:07;;;;;;;50.28;38.20;;;;;;;;;;5042480;28;20020;-68
2022/10/17 08:35:33;;;;;;;49.15;36.58;;;;;;;;;;5035882;28;20124;-68
2022/10/17 08:38:00;;;;;;;48.90;39.90;;;;;;;;;;5038406;28;20075;-69
2022/10/17 08:40:27;;;;;;;46.88;36.33;;;;;;;;;;5037814;28;20119;-58
2022/10/17 08:42:52;;;;;;;48.97;34.72;;;;;;;;;;5039180;28;20032;-72
2022/10/17 08:45:26;;;;;;;48.17;37.28;;;;;;;;;;5035731;28;20025;-76
2022/10/17 08:47:56;;;;;;;48.78;37.75;;;;;;;;;;5038016;28;20032;-75
2022/10/17 08:50:34;;;;;;;47.55;37.13;;;;;;;;;;5044090;28;20044;-76
2022/10/17 08:53:10;;;;;;;44.33;33.58;;;;;;;;;;5043174;28;20028;-71
2022/10/17 08:55:38;;;;;;;48.97;37.28;;;;;;;;;;5038969;28;20033;-69
2022/10/17 08:58:30;;;;;;;47.03;36.67;;;;;;;;;;5038426;28;20032;-72
2022/10/17 09:01:04;;;;;;;42.05;35.30;;;;;;;;;;5037375;28;20556;-75
2022/10/17 09:03:30;;;;;;;47.58;36.80;;;;;;;;;;5040318;28;20024;-74
2022/10/17 09:06:04;;;;;;;47.30;35.63;;;;;;;;;;5036288;28;20035;-73
2022/10/17 09:08:42;;;;;;;51.10;38.95;;;;;;;;;;5038255;28;20021;-73
2022/10/17 09:11:19;;;;;;;48.50;36.00;;;;;;;;;;5035772;28;20017;-74
2022/10/17 09:14:01;;;;;;;46.80;35.75;;;;;;;;;;5036288;28;20091;-74
2022/10/17 09:16:36;;;;;;;46.95;37.33;;;;;;;;;;5035027;28;20029;-73
2022/10/17 09:19:07;;;;;;;50.03;38.80;;;;;;;;;;5035499;28;20112;-72
2022/10/17 09:21:38;;;;;;;47.28;37.78;;;;;;;;;;5037597;28;20040;-62
2022/10/17 09:24:05;;;;;;;49.53;36.42;;;;;;;;;;5038443;28;20029;-73
2022/10/17 09:26:30;;;;;;;52.83;36.10;;;;;;;;;;5038415;28;20036;-66
2022/10/17 09:28:58;;;;;;;46.45;35.60;;;;;;;;;;5039388;28;20028;-74
2022/10/17 09:31:25;;;;;;;48.47;36.60;;;;;;;;;;5037267;28;20017;-77
2022/10/17 09:33:53;;;;;;;43.22;33.92;;;;;;;;;;5036295;28;20184;-75
2022/10/17 09:36:20;;;;;;;49.72;33.97;;;;;;;;;;5041681;28;20040;-73
2022/10/17 09:38:52;;;;;;;52.85;35.47;;;;;;;;;;5037758;28;20032;-74
2022/10/17 09:41:19;;;;;;;41.47;32.83;;;;;;;;;;5033542;28;20029;-71
2022/10/17 09:43:46;;;;;;;40.20;33.05;;;;;;;;;;5039085;28;20024;-66
2022/10/17 09:46:19;;;;;;;41.45;32.50;;;;;;;;;;5034290;28;20056;-65
2022/10/17 09:48:47;;;;;;;42.67;34.13;;;;;;;;;;5020240;28;20053;-65
2022/10/17 09:51:13;;;;;;;42.92;33.30;;;;;;;;;;5034980;28;20920;-65
2022/10/17 09:53:43;;;;;;;42.33;32.83;;;;;;;;;;5031426;28;20021;-60
2022/10/17 09:56:11;;;;;;;44.80;34.10;;;;;;;;;;5031834;28;20102;-65
2022/10/17 09:58:40;;;;;;;40.97;31.20;;;;;;;;;;5034359;28;20610;-64
2022/10/17 10:01:15;;;;;;;40.47;33.40;;;;;;;;;;5035009;28;20029;-65
2022/10/17 10:03:40;;;;;;;41.25;31.80;;;;;;;;;;5039048;28;20026;-65
2022/10/17 10:06:05;;;;;;;41.22;31.73;;;;;;;;;;5036692;28;20045;-65
2022/10/17 10:08:33;;;;;;;42.35;34.83;;;;;;;;;;5037537;28;20037;-65
2022/10/17 10:10:59;;;;;;;45.05;34.97;;;;;;;;;;5035749;28;20029;-65
2022/10/17 10:13:25;;;;;;;43.75;34.67;;;;;;;;;;5036910;28;20083;-65
2022/10/17 10:15:50;;;;;;;41.63;32.17;;;;;;;;;;5036678;28;20119;-64
2022/10/17 10:18:25;;;;;;;46.70;36.50;;;;;;;;;;5032531;28;20044;-63
2022/10/17 10:21:13;;;;;;;42.25;33.70;;;;;;;;;;5034308;28;20056;-66
2022/10/17 10:23:39;;;;;;;44.95;34.40;;;;;;;;;;5034909;28;20625;-62
2022/10/17 10:26:14;;;;;;;42.38;33.90;;;;;;;;;;5034748;28;20066;-65
2022/10/17 10:28:40;;;;;;;55.97;39.80;;;;;;;;;;5034332;28;20037;-63
2022/10/17 10:31:07;;;;;;;43.53;33.13;;;;;;;;;;5037661;28;20037;-65
2022/10/17 10:33:34;;;;;;;41.90;33.70;;;;;;;;;;5039136;28;20021;-65
2022/10/17 10:36:02;;;;;;;38.95;32.47;;;;;;;;;;5029333;28;20037;-62
2022/10/17 10:38:28;;;;;;;41.63;33.53;;;;;;;;;;5031604;28;20056;-61
2022/10/17 10:40:54;;;;;;;40.72;32.90;;;;;;;;;;5034236;28;20461;-67
2022/10/17 10:43:35;;;;;;;37.22;31.65;;;;;;;;;;5035146;28;20410;-67
2022/10/17 10:46:01;;;;;;;37.53;32.22;;;;;;;;;;5032776;28;20468;-70
2022/10/17 10:48:34;;;;;;;37.92;31.38;;;;;;;;;;5035619;28;20949;-68
2022/10/17 10:50:59;;;;;;;38.33;31.50;;;;;;;;;;5032175;28;20025;-72
2022/10/17 10:53:43;;;;;;;37.00;31.48;;;;;;;;;;5033072;28;20040;-70
2022/10/17 10:56:17;;;;;;;37.42;31.27;;;;;;;;;;5036842;28;20021;-70
2022/10/17 10:58:53;;;;;;;34.50;29.05;;;;;;;;;;5035043;28;20033;-70
2022/10/17 11:01:19;;;;;;;35.35;30.08;;;;;;;;;;5035230;28;20498;-70
2022/10/17 11:03:48;;;;;;;35.78;30.85;;;;;;;;;;5033048;28;20033;-69
2022/10/17 11:06:18;;;;;;;31.10;26.85;;;;;;;;;;5034686;28;20024;-70
2022/10/17 11:08:53;;;;;;;30.08;26.65;;;;;;;;;;5035577;28;20464;-69
2022/10/17 11:11:28;;;;;;;29.52;26.35;;;;;;;;;;5029358;28;20431;-69
2022/10/17 11:13:53;;;;;;;31.80;26.75;;;;;;;;;;5033942;28;20045;-70
2022/10/17 11:16:29;;;;;;;28.40;25.42;;;;;;;;;;5032291;28;20047;-66
2022/10/17 11:19:02;;;;;;;29.25;24.95;;;;;;;;;;5033475;28;20032;-72
2022/10/17 11:21:46;;;;;;;27.20;24.27;;;;;;;;;;5034445;28;20029;-72
2022/10/17 11:24:15;;;;;;;28.70;24.10;;;;;;;;;;5036634;28;20025;-74
2022/10/17 11:26:44;;;;;;;23.83;21.23;;;;;;;;;;5036977;28;20426;-73
2022/10/17 11:29:10;;;;;;;24.95;20.70;;;;;;;;;;5038860;28;20033;-71
2022/10/17 11:31:38;;;;;;;19.33;17.10;;;;;;;;;;5036613;28;20029;-71
2022/10/17 11:34:18;;;;;;;18.27;16.30;;;;;;;;;;5036897;28;20057;-71
2022/10/17 11:36:44;;;;;;;21.25;16.10;;;;;;;;;;5036740;28;20033;-71
2022/10/17 11:39:09;;;;;;;20.92;17.77;;;;;;;;;;5035990;28;20091;-72
2022/10/17 11:41:46;;;;;;;19.60;17.52;;;;;;;;;;5039019;28;20539;-73
2022/10/17 11:44:11;;;;;;;21.05;17.35;;;;;;;;;;5040422;28;20873;-73
2022/10/17 11:46:38;;;;;;;18.30;16.40;;;;;;;;;;5036968;28;20033;-72
2022/10/17 11:49:15;;;;;;;16.50;14.90;;;;;;;;;;5037592;28;21121;-69
2022/10/17 11:51:46;;;;;;;16.77;13.70;;;;;;;;;;5038468;28;20029;-69
2022/10/17 11:54:11;;;;;;;16.58;14.88;;;;;;;;;;5033332;28;20036;-63
2022/10/17 11:56:42;;;;;;;18.02;14.88;;;;;;;;;;5036890;28;20900;-70
2022/10/17 11:59:22;;;;;;;16.30;14.70;;;;;;;;;;5036680;28;20036;-69
2022/10/17 12:01:51;;;;;;;17.33;15.55;;;;;;;;;;5037501;28;20051;-69
2022/10/17 12:04:28;;;;;;;17.55;14.05;;;;;;;;;;5039786;28;20029;-70
2022/10/17 12:07:08;;;;;;;17.00;15.20;;;;;;;;;;5039742;28;20140;-70
2022/10/17 12:09:45;;;;;;;15.85;14.25;;;;;;;;;;5040851;28;20391;-69
2022/10/17 12:12:22;;;;;;;15.65;14.00;;;;;;;;;;5040241;28;20017;-70
2022/10/17 12:14:47;;;;;;;15.35;13.85;;;;;;;;;;5036826;28;20048;-69
2022/10/17 12:17:29;;;;;;;14.98;13.38;;;;;;;;;;5034367;28;20510;-70
2022/10/17 12:20:14;;;;;;;16.63;14.90;;;;;;;;;;5038050;28;20025;-70
2022/10/17 12:22:39;;;;;;;;;;;;;;;;;;5036136;28;20035;-70
2022/10/17 12:25:04;;;;;;;15.70;14.10;;;;;;;;;;5039137;28;19913;-69
2022/10/17 12:27:45;;;;;;;15.48;13.98;;;;;;;;;;5038961;28;20361;-69
2022/10/17 12:30:26;;;;;;;15.10;13.60;;;;;;;;;;5038857;28;20029;-69
2022/10/17 12:33:12;;;;;;;17.33;15.60;;;;;;;;;;5038900;28;20025;-70
2022/10/17 12:35:37;;;;;;;21.13;15.57;;;;;;;;;;5034778;28;20049;-69
2022/10/17 12:38:23;;;;;;;18.45;16.60;;;;;;;;;;5038467;28;20033;-70
2022/10/17 12:40:49;;;;;;;19.73;16.67;;;;;;;;;;5035305;28;20041;-70
2022/10/17 12:43:14;;;;;;;21.27;16.27;;;;;;;;;;5036992;28;20079;-66
2022/10/17 12:46:03;;;;;;;21.48;14.48;;;;;;;;;;5039262;28;20467;-69
2022/10/17 12:48:38;;;;;;;19.05;17.23;;;;;;;;;;5034577;28;20471;-69
2022/10/17 12:51:08;;;;;;;18.17;16.20;;;;;;;;;;5038784;28;20024;-69
2022/10/17 12:53:45;;;;;;;19.85;16.48;;;;;;;;;;5029815;28;20049;-68
2022/10/17 12:56:11;;;;;;;18.85;16.92;;;;;;;;;;5040391;28;20029;-68
2022/10/17 12:58:41;;;;;;;21.67;17.02;;;;;;;;;;5038370;28;20025;-68
2022/10/17 13:01:12;;;;;;;19.27;17.05;;;;;;;;;;5042256;28;20657;-69
2022/10/17 13:03:46;;;;;;;22.27;19.95;;;;;;;;;;5043040;28;20036;-68
2022/10/17 13:06:19;;;;;;;21.00;18.58;;;;;;;;;;5041094;28;20036;-68
2022/10/17 13:08:46;;;;;;;20.77;18.58;;;;;;;;;;5040827;28;20032;-68
2022/10/17 13:11:12;;;;;;;22.98;18.50;;;;;;;;;;5040618;28;20040;-67
2022/10/17 13:13:41;;;;;;;23.27;18.38;;;;;;;;;;5039367;28;20048;-69
2022/10/17 13:16:06;;;;;;;18.23;16.33;;;;;;;;;;5040144;28;20116;-68
2022/10/17 13:18:32;;;;;;;21.02;18.38;;;;;;;;;;5038969;28;20130;-68
2022/10/17 13:20:59;;;;;;;22.30;17.45;;;;;;;;;;5038303;28;20938;-68
2022/10/17 13:23:25;;;;;;;19.67;17.48;;;;;;;;;;5038734;28;20032;-67
2022/10/17 13:26:02;;;;;;;18.27;16.38;;;;;;;;;;5037474;28;20025;-67
2022/10/17 13:28:27;;;;;;;21.42;17.95;;;;;;;;;;5038362;28;20138;-67
2022/10/17 13:30:53;;;;;;;20.60;17.55;;;;;;;;;;5037616;28;20527;-68
2022/10/17 13:33:31;;;;;;;18.35;16.55;;;;;;;;;;5037778;28;20043;-67
2022/10/17 13:35:56;;;;;;;16.70;15.10;;;;;;;;;;5036919;28;20033;-67
2022/10/17 13:38:26;;;;;;;17.13;14.52;;;;;;;;;;5038052;28;20037;-68
2022/10/17 13:40:51;;;;;;;21.67;15.57;;;;;;;;;;5040286;28;20029;-67
2022/10/17 13:43:22;;;;;;;21.60;15.60;;;;;;;;;;5037413;28;21256;-68
2022/10/17 13:45:49;;;;;;;17.90;16.05;;;;;;;;;;5039013;28;20127;-67
2022/10/17 13:48:19;;;;;;;21.05;16.95;;;;;;;;;;5036567;28;20025;-68
2022/10/17 13:50:47;;;;;;;19.02;17.13;;;;;;;;;;5035593;28;20028;-68
2022/10/17 13:53:18;;;;;;;17.92;15.70;;;;;;;;;;5036836;28;20029;-62
2022/10/17 13:55:50;;;;;;;19.38;16.90;;;;;;;;;;5039084;28;20963;-66
2022/10/17 13:58:16;;;;;;;19.80;16.98;;;;;;;;;;5036270;28;20037;-67
2022/10/17 14:00:41;;;;;;;18.48;16.20;;;;;;;;;;5039473;28;20089;-69
2022/10/17 14:03:07;;;;;;;20.83;16.55;;;;;;;;;;5037595;28;20870;-68
2022/10/17 14:05:32;;;;;;;19.70;17.73;;;;;;;;;;5037322;28;20458;-71
2022/10/17 14:07:59;;;;;;;22.55;16.77;;;;;;;;;;5035779;28;20829;-71
2022/10/17 14:10:26;;;;;;;16.75;15.10;;;;;;;;;;5036011;28;20025;-71
2022/10/17 14:12:53;;;;;;;17.85;14.70;;;;;;;;;;5038439;28;20148;-70
2022/10/17 14:15:19;;;;;;;17.40;15.13;;;;;;;;;;5036318;28;20053;-71
2022/10/17 14:17:44;;;;;;;16.75;15.15;;;;;;;;;;5038434;28;20101;-71
2022/10/17 14:20:20;;;;;;;17.33;15.52;;;;;;;;;;5038824;28;20424;-70
2022/10/17 14:22:46;;;;;;;19.42;17.15;;;;;;;;;;5035341;28;20021;-70
2022/10/17 14:25:30;;;;;;;18.77;16.67;;;;;;;;;;5036465;28;20033;-72
2022/10/17 14:28:02;;;;;;;20.05;16.42;;;;;;;;;;5038697;28;20036;-72